Molokai, Hawaii
Current Conditions -  °F | °C
As of 11:54 PM on Thursday 30 Oct 2014 (Local Time) from PHMK Reporting Station
Few Clouds Few Clouds  
Wind Chill: 76°   Ceiling: Unl
Heat Index: 76°   Visibility: 10mi
Dew Point: 70°   Wind: 15mph
Humidity: 82%   Direction: 50°NE
Pressure: 30.06"   Gusts: 24mph
Location:  21.13°N, 157.18°W
Report Text: PHMK 310954Z AUTO 05013G21KT 10SM FEW039 24/21 A3006 RMK AO2 SLP182 T02440211 402780233 TSNO
Loading
Personal Weather Stations






























Interactive Weather Map
Tropical Storm Tracking
New forecast layout! Learn more

10-Day Weather Forecast

Advertisements
Track Severe Weather on mobile